Time;durP1;ratioP1;P1;durP2;ratioP2;P2;SDS_P1;SDS_P2;PMS_P1;PMS_P2;Temp;Humidity;BMP_temperature;BMP_pressure;BME280_temperature;BME280_humidity;BME280_pressure;Samples;Min_cycle;Max_cycle;Signal;HPM_P1;HPM_P2
2021/11/27 00:00:20;;;;;;;26.90;17.27;;;4.80;99.90;;;;;;5016363;28;20021;-96
2021/11/27 00:03:10;;;;;;;27.17;16.80;;;4.80;99.90;;;;;;5015433;28;20033;-95
2021/11/27 00:05:38;;;;;;;25.33;16.10;;;4.80;99.90;;;;;;5014493;28;20037;-95
2021/11/27 00:08:11;;;;;;;25.48;16.05;;;4.80;99.90;;;;;;5014563;28;20041;-95
2021/11/27 00:10:40;;;;;;;25.02;15.48;;;4.90;99.90;;;;;;5013392;28;20371;-96
2021/11/27 00:13:11;;;;;;;25.25;15.75;;;4.80;99.90;;;;;;5028483;28;20092;-95
2021/11/27 00:15:46;;;;;;;27.95;16.65;;;4.90;99.90;;;;;;5003488;28;20037;-95
2021/11/27 00:18:24;;;;;;;;;;;;;;;;;;;;;
2021/11/27 00:21:01;;;;;;;25.00;15.38;;;4.90;99.90;;;;;;5031373;28;20045;-94
2021/11/27 00:23:34;;;;;;;24.27;15.75;;;4.90;99.90;;;;;;5033180;28;20049;-95
2021/11/27 00:26:04;;;;;;;25.05;14.82;;;5.00;99.90;;;;;;5034106;28;20138;-95
2021/11/27 00:28:33;;;;;;;28.25;15.52;;;4.90;99.90;;;;;;5033099;28;20033;-96
2021/11/27 00:31:06;;;;;;;27.95;16.88;;;4.90;99.90;;;;;;5031661;28;20111;-95
2021/11/27 00:33:41;;;;;;;28.15;17.35;;;4.90;99.90;;;;;;5035466;28;20029;-96
2021/11/27 00:36:12;;;;;;;26.77;15.77;;;4.90;99.90;;;;;;5016427;28;20055;-96
2021/11/27 00:38:43;;;;;;;24.35;15.23;;;4.90;99.90;;;;;;5032780;28;20029;-95
2021/11/27 00:41:12;;;;;;;25.52;15.75;;;4.90;99.90;;;;;;5015997;28;20064;-96
2021/11/27 00:43:40;;;;;;;24.80;14.35;;;4.90;99.90;;;;;;5015225;28;20079;-96
2021/11/27 00:46:09;;;;;;;26.48;14.95;;;4.90;99.90;;;;;;5015971;28;20028;-95
2021/11/27 00:48:37;;;;;;;28.48;16.67;;;4.90;99.90;;;;;;5010785;28;20066;-96
2021/11/27 00:51:10;;;;;;;25.48;15.02;;;4.90;99.90;;;;;;4979333;28;20045;-94
2021/11/27 00:53:39;;;;;;;25.80;15.82;;;4.90;99.90;;;;;;4987154;28;20040;-94
2021/11/27 00:56:09;;;;;;;25.23;14.88;;;4.90;99.90;;;;;;5042667;28;20024;-95
2021/11/27 00:58:47;;;;;;;24.98;14.63;;;4.90;99.90;;;;;;5051469;28;20078;-95
2021/11/27 01:01:29;;;;;;;25.05;14.90;;;4.90;99.90;;;;;;4995204;28;20091;-96
2021/11/27 01:03:57;;;;;;;25.17;14.52;;;4.80;99.90;;;;;;5022348;28;20076;-96
2021/11/27 01:06:28;;;;;;;26.60;15.25;;;4.80;99.90;;;;;;5030256;28;20021;-95
2021/11/27 01:08:59;;;;;;;23.83;14.07;;;4.80;99.90;;;;;;5015066;28;20026;-94
2021/11/27 01:11:27;;;;;;;24.65;13.57;;;4.80;99.90;;;;;;4997993;28;20042;-95
2021/11/27 01:14:01;;;;;;;23.63;13.02;;;4.80;99.90;;;;;;4999116;28;20085;-94
2021/11/27 01:16:30;;;;;;;24.50;13.23;;;4.80;99.90;;;;;;5016077;28;20124;-95
2021/11/27 01:18:58;;;;;;;23.05;13.20;;;4.80;99.90;;;;;;5000364;28;20125;-94
2021/11/27 01:21:33;;;;;;;27.70;14.77;;;4.70;99.90;;;;;;5045282;28;20094;-94
2021/11/27 01:24:10;;;;;;;25.13;13.82;;;4.70;99.90;;;;;;5034730;28;20025;-95
2021/11/27 01:27:00;;;;;;;23.08;13.18;;;4.70;99.90;;;;;;5001533;28;20098;-96
2021/11/27 01:29:33;;;;;;;24.15;12.85;;;4.70;99.90;;;;;;5018235;28;20044;-96
2021/11/27 01:32:11;;;;;;;24.45;13.45;;;4.70;99.90;;;;;;5032682;28;20048;-95
2021/11/27 01:34:49;;;;;;;24.33;12.82;;;4.70;99.90;;;;;;5041434;28;20498;-96
2021/11/27 01:37:20;;;;;;;22.17;11.55;;;4.70;99.90;;;;;;5052298;28;20021;-96
2021/11/27 01:39:47;;;;;;;23.75;11.88;;;4.70;99.90;;;;;;5017390;28;20094;-96
2021/11/27 01:42:17;;;;;;;21.10;12.07;;;4.80;99.90;;;;;;5032207;28;20033;-95
2021/11/27 01:44:45;;;;;;;23.63;12.82;;;4.80;99.90;;;;;;5051620;28;20123;-96
2021/11/27 01:47:14;;;;;;;23.38;13.23;;;4.80;99.90;;;;;;5051428;28;20523;-95
2021/11/27 01:49:41;;;;;;;25.60;14.10;;;4.80;99.90;;;;;;5032495;28;20395;-95
2021/11/27 01:52:18;;;;;;;16.65;10.15;;;4.70;99.90;;;;;;5032171;28;20044;-96
2021/11/27 01:54:45;;;;;;;13.98;7.00;;;4.60;99.90;;;;;;5030687;28;20101;-93
2021/11/27 01:57:14;;;;;;;12.07;5.80;;;4.40;99.90;;;;;;5052170;28;20029;-95
2021/11/27 01:59:47;;;;;;;6.70;4.45;;;4.30;99.90;;;;;;5052451;28;20473;-95
2021/11/27 02:02:18;;;;;;;7.15;4.30;;;4.20;99.90;;;;;;5051472;28;20433;-96
2021/11/27 02:04:44;;;;;;;7.72;4.00;;;4.10;99.90;;;;;;5051974;28;20491;-96
2021/11/27 02:07:15;;;;;;;6.13;3.70;;;4.00;99.90;;;;;;5037499;28;20021;-94
2021/11/27 02:09:48;;;;;;;6.82;3.38;;;4.00;99.90;;;;;;5032718;28;20040;-95
2021/11/27 02:12:15;;;;;;;6.53;2.90;;;3.90;99.90;;;;;;5051079;28;20028;-96
2021/11/27 02:14:42;;;;;;;5.57;3.03;;;3.90;99.90;;;;;;5032382;28;20029;-96
2021/11/27 02:17:10;;;;;;;4.90;2.75;;;3.90;99.90;;;;;;5032723;28;20241;-96
2021/11/27 02:19:38;;;;;;;4.53;2.33;;;3.90;99.90;;;;;;5049798;28;20027;-96
2021/11/27 02:22:07;;;;;;;4.15;2.63;;;3.80;99.90;;;;;;5020477;28;20049;-96
2021/11/27 02:24:52;;;;;;;5.53;2.45;;;3.80;99.90;;;;;;5054267;28;20024;-95
2021/11/27 02:27:24;;;;;;;3.50;2.10;;;3.80;99.90;;;;;;5036024;28;20040;-95
2021/11/27 02:29:53;;;;;;;4.70;2.30;;;3.80;99.90;;;;;;5014051;28;20166;-96
2021/11/27 02:32:21;;;;;;;6.53;2.00;;;3.80;99.90;;;;;;5029417;28;20029;-95
2021/11/27 02:34:52;;;;;;;4.57;2.20;;;3.80;99.90;;;;;;5053569;28;20025;-96
2021/11/27 02:37:20;;;;;;;3.28;1.60;;;3.70;99.90;;;;;;5045957;28;20017;-96
2021/11/27 02:39:48;;;;;;;4.03;2.03;;;3.70;99.90;;;;;;4998685;28;20120;-94
2021/11/27 02:42:14;;;;;;;4.82;1.77;;;3.60;99.90;;;;;;5011108;28;20040;-95
2021/11/27 02:44:41;;;;;;;2.95;1.65;;;3.60;99.90;;;;;;5017672;28;20033;-95
2021/11/27 02:47:16;;;;;;;3.53;1.38;;;3.60;99.90;;;;;;5052796;28;20013;-95
2021/11/27 02:49:48;;;;;;;2.88;1.25;;;3.60;99.90;;;;;;5019530;28;20116;-96
2021/11/27 02:52:13;;;;;;;3.30;1.17;;;3.60;99.90;;;;;;5018617;28;20024;-96
2021/11/27 02:54:39;;;;;;;3.63;1.45;;;3.60;99.90;;;;;;5051318;28;20025;-96
2021/11/27 02:57:16;;;;;;;3.35;1.25;;;3.60;99.90;;;;;;5035040;28;20025;-95
2021/11/27 02:59:42;;;;;;;6.70;1.48;;;3.60;99.90;;;;;;5040956;28;20037;-96
2021/11/27 03:02:09;;;;;;;3.55;1.40;;;3.50;99.90;;;;;;5047523;28;20080;-96
2021/11/27 03:04:42;;;;;;;4.35;1.58;;;3.50;99.90;;;;;;5014972;28;20057;-96
2021/11/27 03:07:08;;;;;;;3.92;1.63;;;3.50;99.90;;;;;;5052217;28;20029;-96
2021/11/27 03:09:34;;;;;;;2.95;1.50;;;3.50;99.90;;;;;;5035348;28;20036;-96
2021/11/27 03:12:03;;;;;;;4.65;1.95;;;3.40;99.90;;;;;;5035946;28;20028;-96
2021/11/27 03:14:31;;;;;;;3.60;1.70;;;3.40;99.90;;;;;;5039333;28;20021;-96
2021/11/27 03:17:01;;;;;;;3.13;1.75;;;3.30;99.90;;;;;;5024563;28;20078;-96
2021/11/27 03:19:29;;;;;;;4.50;1.90;;;3.30;99.90;;;;;;5024311;28;20056;-96
2021/11/27 03:21:54;;;;;;;3.35;1.60;;;3.30;99.90;;;;;;5023342;28;20033;-96
2021/11/27 03:24:23;;;;;;;2.72;1.80;;;3.20;99.90;;;;;;5057124;28;20115;-96
2021/11/27 03:26:50;;;;;;;3.45;2.00;;;3.20;99.90;;;;;;5039475;28;20465;-95
2021/11/27 03:29:18;;;;;;;3.88;2.38;;;3.20;99.90;;;;;;5038353;28;20043;-96
2021/11/27 03:31:44;;;;;;;4.10;2.40;;;3.20;99.90;;;;;;5040358;28;20057;-96
2021/11/27 03:34:10;;;;;;;5.80;2.40;;;3.10;99.90;;;;;;5028344;28;20036;-96
2021/11/27 03:36:41;;;;;;;4.40;2.00;;;3.10;99.90;;;;;;5056376;28;20024;-96
2021/11/27 03:39:12;;;;;;;4.95;2.38;;;3.10;99.90;;;;;;5030337;28;20021;-95
2021/11/27 03:41:40;;;;;;;4.13;1.98;;;3.00;99.90;;;;;;5054870;28;20056;-96
2021/11/27 03:44:07;;;;;;;5.18;2.15;;;3.00;99.90;;;;;;5046540;28;20099;-95
2021/11/27 03:46:33;;;;;;;5.40;1.75;;;2.90;99.90;;;;;;5060712;28;20020;-96
2021/11/27 03:48:59;;;;;;;6.10;2.38;;;2.90;99.90;;;;;;5026836;28;20029;-95
2021/11/27 03:51:29;;;;;;;4.97;1.40;;;2.80;99.90;;;;;;5046159;28;20024;-95
2021/11/27 03:53:58;;;;;;;3.92;1.50;;;2.80;99.90;;;;;;5051116;28;20484;-95
2021/11/27 03:56:29;;;;;;;4.15;1.30;;;2.80;99.90;;;;;;5055341;28;20075;-96
2021/11/27 03:58:58;;;;;;;4.55;1.20;;;2.80;99.90;;;;;;5058454;28;20542;-96
2021/11/27 04:01:28;;;;;;;5.10;1.20;;;2.70;99.90;;;;;;5022748;28;20029;-96
2021/11/27 04:03:58;;;;;;;4.72;1.10;;;2.70;99.90;;;;;;5039150;28;20043;-96
2021/11/27 04:06:29;;;;;;;2.22;0.98;;;2.70;99.90;;;;;;5056507;28;20020;-95
2021/11/27 04:08:58;;;;;;;2.25;0.90;;;2.60;99.90;;;;;;5022391;28;20051;-96
2021/11/27 04:11:24;;;;;;;3.78;1.10;;;2.60;99.90;;;;;;5022495;28;20119;-95
2021/11/27 04:13:53;;;;;;;4.15;1.35;;;2.60;99.90;;;;;;5005220;28;20033;-94
2021/11/27 04:16:27;;;;;;;3.00;0.93;;;2.50;99.90;;;;;;5020901;28;20037;-95
2021/11/27 04:18:54;;;;;;;;;;;2.50;99.90;;;;;;5021467;28;20526;-96
2021/11/27 04:21:23;;;;;;;1.98;0.85;;;2.50;99.90;;;;;;4988829;28;19908;-96
2021/11/27 04:24:00;;;;;;;2.95;1.05;;;2.40;99.90;;;;;;5022263;28;20485;-96
2021/11/27 04:26:38;;;;;;;4.70;1.00;;;2.30;99.90;;;;;;5022103;28;20128;-96
2021/11/27 04:29:05;;;;;;;4.38;1.10;;;2.20;99.90;;;;;;5023047;28;20037;-96
2021/11/27 04:31:31;;;;;;;2.53;1.10;;;2.20;99.90;;;;;;5052081;28;20052;-95
2021/11/27 04:33:57;;;;;;;3.22;0.80;;;2.20;99.90;;;;;;5021486;28;20120;-96
2021/11/27 04:36:23;;;;;;;3.65;0.82;;;2.10;99.90;;;;;;5054278;28;20053;-96
2021/11/27 04:38:49;;;;;;;4.32;0.90;;;2.10;99.90;;;;;;5021237;28;20037;-95
2021/11/27 04:41:20;;;;;;;1.20;0.68;;;2.10;99.90;;;;;;5054022;28;20120;-96
2021/11/27 04:43:50;;;;;;;2.78;0.98;;;2.00;99.90;;;;;;5021096;28;20032;-94
2021/11/27 04:46:18;;;;;;;2.33;0.95;;;2.00;99.90;;;;;;5054232;28;20021;-96
2021/11/27 04:48:45;;;;;;;2.50;0.90;;;1.90;99.90;;;;;;5055012;28;20021;-96
2021/11/27 04:51:14;;;;;;;2.35;1.25;;;1.90;99.90;;;;;;5037588;28;20029;-95
2021/11/27 04:53:45;;;;;;;2.60;1.10;;;1.90;99.90;;;;;;5053364;28;20086;-96
2021/11/27 04:56:14;;;;;;;1.52;0.73;;;1.90;99.90;;;;;;5037688;28;20025;-96
2021/11/27 04:59:02;;;;;;;2.72;0.90;;;1.90;99.90;;;;;;5005486;28;20056;-96
2021/11/27 05:01:33;;;;;;;2.58;1.30;;;1.90;99.90;;;;;;5053921;28;20115;-95
2021/11/27 05:04:04;;;;;;;3.20;1.00;;;1.90;99.90;;;;;;5054160;28;20456;-96
2021/11/27 05:06:32;;;;;;;2.60;1.20;;;2.00;99.90;;;;;;5054323;28;20027;-96
2021/11/27 05:09:07;;;;;;;3.33;1.02;;;2.00;99.90;;;;;;5019967;28;20055;-95
2021/11/27 05:11:38;;;;;;;3.22;1.00;;;2.00;99.90;;;;;;5006223;28;20128;-95
2021/11/27 05:14:08;;;;;;;3.05;0.93;;;2.00;99.90;;;;;;5053965;28;20110;-95
2021/11/27 05:16:43;;;;;;;2.90;1.05;;;2.00;99.90;;;;;;5054880;28;20025;-96
2021/11/27 05:19:14;;;;;;;2.80;0.90;;;2.10;99.90;;;;;;5038251;28;20025;-96
2021/11/27 05:21:42;;;;;;;3.22;0.90;;;2.10;99.90;;;;;;5055481;28;20037;-95
2021/11/27 05:24:11;;;;;;;2.80;0.90;;;2.00;99.90;;;;;;5021167;28;20045;-95
2021/11/27 05:26:51;;;;;;;4.45;1.05;;;2.10;99.90;;;;;;5054528;28;20115;-96
2021/11/27 05:29:22;;;;;;;2.85;1.10;;;2.10;99.90;;;;;;5053740;28;20115;-95
2021/11/27 05:32:36;;;;;;;3.35;1.33;;;2.00;99.90;;;;;;5036828;28;20561;-95
2021/11/27 05:35:12;;;;;;;3.33;1.27;;;2.00;99.90;;;;;;5037232;28;20103;-96
2021/11/27 05:37:39;;;;;;;6.32;1.60;;;2.00;99.90;;;;;;5054121;28;20033;-95
2021/11/27 05:40:16;;;;;;;4.65;1.90;;;1.90;99.90;;;;;;5054768;28;20035;-94
2021/11/27 05:42:47;;;;;;;4.13;2.15;;;1.90;99.90;;;;;;5054297;28;20146;-96
2021/11/27 05:45:17;;;;;;;2.97;1.60;;;1.90;99.90;;;;;;5055957;28;20104;-96
2021/11/27 05:47:44;;;;;;;3.97;2.05;;;1.90;99.90;;;;;;5037664;28;20049;-96
2021/11/27 05:50:11;;;;;;;3.67;2.17;;;1.80;99.90;;;;;;5021198;28;20033;-96
2021/11/27 05:52:43;;;;;;;4.25;2.10;;;1.80;99.90;;;;;;5055213;28;20036;-95
2021/11/27 05:55:10;;;;;;;5.00;2.35;;;1.80;99.90;;;;;;5040959;28;20428;-95
2021/11/27 05:57:36;;;;;;;4.43;2.58;;;1.80;99.90;;;;;;5045808;28;20028;-95
2021/11/27 06:00:05;;;;;;;5.57;2.20;;;1.80;99.90;;;;;;5014424;28;20033;-94
2021/11/27 06:02:31;;;;;;;3.80;2.38;;;1.70;99.90;;;;;;5054185;28;20120;-95
2021/11/27 06:05:07;;;;;;;4.40;2.30;;;1.70;99.90;;;;;;5058836;28;20124;-95
2021/11/27 06:07:33;;;;;;;4.00;2.40;;;1.60;99.90;;;;;;5042875;28;20116;-95
2021/11/27 06:10:21;;;;;;;3.90;2.72;;;1.70;99.90;;;;;;5024406;28;20013;-95
2021/11/27 06:12:48;;;;;;;2.90;2.05;;;1.60;99.90;;;;;;5055546;28;20116;-95
2021/11/27 06:15:17;;;;;;;5.93;2.60;;;1.70;99.90;;;;;;5072397;28;20063;-95
2021/11/27 06:17:49;;;;;;;4.75;2.67;;;1.60;99.90;;;;;;5037602;28;20045;-95
2021/11/27 06:20:15;;;;;;;4.50;2.47;;;1.60;99.90;;;;;;5016456;28;20052;-94
2021/11/27 06:22:46;;;;;;;5.07;2.45;;;1.60;99.90;;;;;;5045863;28;20548;-96
2021/11/27 06:25:13;;;;;;;4.22;2.13;;;1.60;99.90;;;;;;5060577;28;20029;-96
2021/11/27 06:27:44;;;;;;;4.05;2.05;;;1.60;99.90;;;;;;5026363;28;20105;-96
2021/11/27 06:30:22;;;;;;;3.45;2.00;;;1.60;99.90;;;;;;5061224;28;20076;-95
2021/11/27 06:32:53;;;;;;;5.07;2.75;;;1.60;99.90;;;;;;5062101;28;20029;-94
2021/11/27 06:35:32;;;;;;;5.07;2.70;;;1.60;99.90;;;;;;5031666;28;20044;-95
2021/11/27 06:38:16;;;;;;;5.18;2.97;;;1.50;99.90;;;;;;5061816;28;20036;-95
2021/11/27 06:41:14;;;;;;;4.75;2.70;;;1.50;99.90;;;;;;5042050;28;20021;-95
2021/11/27 06:43:47;;;;;;;4.40;2.63;;;1.50;99.90;;;;;;5009984;28;20057;-95
2021/11/27 06:46:38;;;;;;;3.60;2.17;;;1.50;99.90;;;;;;5009836;28;20021;-94
2021/11/27 06:49:08;;;;;;;4.82;2.90;;;1.50;99.90;;;;;;5040974;28;20408;-95
2021/11/27 06:51:38;;;;;;;4.60;2.47;;;1.50;99.90;;;;;;5057475;28;20029;-95
2021/11/27 06:54:29;;;;;;;4.53;2.70;;;1.50;99.90;;;;;;5024909;28;20502;-95
2021/11/27 06:57:01;;;;;;;5.00;2.80;;;1.50;99.90;;;;;;5040771;28;20028;-95
2021/11/27 06:59:57;;;;;;;4.80;2.75;;;1.50;99.90;;;;;;5057946;28;20130;-95
2021/11/27 07:02:59;;;;;;;4.75;2.75;;;1.50;99.90;;;;;;5026709;28;20060;-95
2021/11/27 07:05:50;;;;;;;4.35;2.72;;;1.50;99.90;;;;;;4990559;28;20098;-95
2021/11/27 07:08:22;;;;;;;5.30;3.00;;;1.50;99.90;;;;;;5040234;28;20040;-94
2021/11/27 07:10:59;;;;;;;4.23;2.83;;;1.50;99.90;;;;;;5024785;28;20025;-95
2021/11/27 07:13:30;;;;;;;5.25;3.03;;;1.50;99.90;;;;;;5038965;28;20037;-95
2021/11/27 07:16:02;;;;;;;5.13;2.95;;;1.50;99.90;;;;;;5024804;28;20473;-94
2021/11/27 07:18:31;;;;;;;5.17;3.23;;;1.50;99.90;;;;;;5040066;28;20033;-95
2021/11/27 07:20:58;;;;;;;4.65;3.20;;;1.50;99.90;;;;;;5057604;28;20374;-95
2021/11/27 07:23:26;;;;;;;4.97;3.25;;;1.50;99.90;;;;;;5041944;28;20106;-95
2021/11/27 07:25:55;;;;;;;6.15;3.22;;;1.50;99.90;;;;;;5023451;28;20035;-96
2021/11/27 07:28:22;;;;;;;4.82;3.20;;;1.50;99.90;;;;;;5023869;28;20124;-96
2021/11/27 07:30:48;;;;;;;5.45;2.80;;;1.50;99.90;;;;;;5021318;28;20147;-95
2021/11/27 07:33:19;;;;;;;4.45;2.70;;;1.50;99.90;;;;;;5038957;28;20116;-95
2021/11/27 07:36:07;;;;;;;4.32;2.63;;;1.50;99.90;;;;;;5071519;28;20097;-94
2021/11/27 07:39:23;;;;;;;4.72;2.80;;;1.60;99.90;;;;;;5043458;28;20105;-95
2021/11/27 07:41:55;;;;;;;5.20;2.72;;;1.60;99.90;;;;;;5071648;28;20040;-94
2021/11/27 07:44:39;;;;;;;4.50;2.60;;;1.50;99.90;;;;;;5073448;28;20033;-94
2021/11/27 07:47:11;;;;;;;4.82;2.83;;;1.50;99.90;;;;;;5043229;28;20114;-94
2021/11/27 07:49:48;;;;;;;6.07;2.92;;;1.50;99.90;;;;;;5025822;28;20115;-94
2021/11/27 07:52:21;;;;;;;4.88;2.97;;;1.40;99.90;;;;;;5057406;28;20091;-94
2021/11/27 07:54:58;;;;;;;6.22;3.45;;;1.40;99.90;;;;;;5055795;28;20464;-94
2021/11/27 07:57:26;;;;;;;6.10;3.28;;;1.40;99.90;;;;;;5040753;28;20045;-94
2021/11/27 07:59:59;;;;;;;7.38;3.22;;;1.40;99.90;;;;;;5040556;28;20028;-93
2021/11/27 08:02:26;;;;;;;6.03;3.53;;;1.30;99.90;;;;;;5038608;28;20036;-94
2021/11/27 08:04:52;;;;;;;4.88;2.83;;;1.30;99.90;;;;;;5056036;28;20049;-92
2021/11/27 08:07:18;;;;;;;6.22;3.55;;;1.30;99.90;;;;;;5056244;28;20025;-92
2021/11/27 08:09:43;;;;;;;5.75;3.20;;;1.30;99.90;;;;;;5060730;28;20029;-92
2021/11/27 08:12:10;;;;;;;4.70;2.90;;;1.30;99.90;;;;;;5057367;28;20029;-92
2021/11/27 08:21:41;;;;;;;9.45;5.00;;;1.40;99.90;;;;;;5026569;28;20140;-93
2021/11/27 08:24:28;;;;;;;;;;;1.40;99.90;;;;;;5018725;28;20050;-94
2021/11/27 08:34:53;;;;;;;;;;;;;;;;;;;;;
2021/11/27 08:37:59;;;;;;;6.97;4.40;;;1.20;99.90;;;;;;4900587;29;20107;-93
2021/11/27 08:41:34;;;;;;;7.47;4.47;;;1.30;99.90;;;;;;4884448;29;20104;-92
2021/11/27 08:47:45;;;;;;;6.80;4.35;;;1.20;99.90;;;;;;4807232;29;20068;-92
2021/11/27 08:50:27;;;;;;;7.05;4.63;;;1.20;99.90;;;;;;4771073;30;20048;-92
2021/11/27 08:53:27;;;;;;;7.00;4.23;;;1.20;99.90;;;;;;4801511;29;20052;-92
2021/11/27 09:11:19;;;;;;;7.97;3.88;;;1.40;99.90;;;;;;4702604;30;20049;-93
2021/11/27 09:15:02;;;;;;;;;;;;;;;;;;;;;
2021/11/27 09:21:26;;;;;;;4.63;2.40;;;1.50;99.90;;;;;;4798146;29;20515;-94
2021/11/27 09:28:27;;;;;;;3.97;2.08;;;1.60;99.90;;;;;;4828824;29;20095;-93
2021/11/27 09:38:43;;;;;;;;;;;;;;;;;;;;;
2021/11/27 09:42:20;;;;;;;;;;;;;;;;;;;;;
2021/11/27 09:44:51;;;;;;;;;;;;;;;;;;;;;
2021/11/27 09:47:55;;;;;;;;;;;;;;;;;;;;;
2021/11/27 09:54:26;;;;;;;5.97;2.47;;;1.80;99.90;;;;;;4984747;28;20038;-92
2021/11/27 09:57:20;;;;;;;3.95;2.88;;;1.90;99.90;;;;;;4989629;28;20561;-91
2021/11/27 09:59:52;;;;;;;5.65;3.17;;;1.90;99.90;;;;;;5020122;28;20505;-91
2021/11/27 10:02:27;;;;;;;4.65;2.67;;;2.00;99.90;;;;;;5035229;28;20041;-90
2021/11/27 10:05:34;;;;;;;;;;;;;;;;;;;;;
2021/11/27 10:08:13;;;;;;;4.38;2.30;;;2.10;99.90;;;;;;5000469;28;20564;-92
2021/11/27 10:10:40;;;;;;;4.15;3.08;;;2.20;99.90;;;;;;5038993;28;20071;-91
2021/11/27 10:13:09;;;;;;;5.57;3.35;;;2.20;99.90;;;;;;4987264;28;20029;-87
2021/11/27 10:15:56;;;;;;;7.53;3.40;;;2.20;99.90;;;;;;5044002;28;20026;-89
2021/11/27 10:18:30;;;;;;;7.47;3.55;;;2.20;99.90;;;;;;5039235;28;20030;-92
2021/11/27 10:21:18;;;;;;;;;;;2.20;99.90;;;;;;5018560;28;20433;-91
2021/11/27 10:23:45;;;;;;;6.57;3.38;;;2.20;99.90;;;;;;5040140;28;20369;-92
2021/11/27 10:26:39;;;;;;;5.68;3.13;;;2.30;99.90;;;;;;5056813;28;20025;-89
2021/11/27 10:29:14;;;;;;;7.85;4.20;;;2.30;99.90;;;;;;5049118;22;20044;-89
2021/11/27 10:31:41;;;;;;;6.97;3.78;;;2.40;99.90;;;;;;5076448;28;20051;-90
2021/11/27 10:34:07;;;;;;;8.02;4.97;;;2.30;99.90;;;;;;5076319;28;20043;-89
2021/11/27 10:36:33;;;;;;;7.47;4.10;;;2.40;99.90;;;;;;5059070;28;20481;-90
2021/11/27 10:39:05;;;;;;;7.35;4.78;;;2.40;99.90;;;;;;5059120;28;20043;-89
2021/11/27 10:41:36;;;;;;;13.35;5.53;;;2.50;99.90;;;;;;5059983;28;20032;-92
2021/11/27 10:44:10;;;;;;;10.00;5.20;;;2.50;99.90;;;;;;5062888;28;20021;-92
2021/11/27 10:46:38;;;;;;;8.30;5.03;;;2.50;99.90;;;;;;5061847;28;20123;-90
2021/11/27 10:49:10;;;;;;;12.77;6.28;;;2.60;99.90;;;;;;5063290;28;20021;-93
2021/11/27 10:51:35;;;;;;;12.10;6.10;;;2.70;99.90;;;;;;5063654;28;20054;-94
2021/11/27 10:54:06;;;;;;;10.80;6.10;;;2.80;99.90;;;;;;5063731;28;20024;-91
2021/11/27 10:56:47;;;;;;;15.07;7.95;;;3.00;99.90;;;;;;5066263;28;20025;-92
2021/11/27 10:59:16;;;;;;;18.08;7.50;;;3.20;99.90;;;;;;5062744;28;20056;-94
2021/11/27 11:02:07;;;;;;;14.82;8.27;;;3.30;99.90;;;;;;5063617;28;20082;-92
2021/11/27 11:04:34;;;;;;;20.95;9.60;;;3.50;99.90;;;;;;5065692;28;20074;-91
2021/11/27 11:07:21;;;;;;;25.80;12.77;;;3.50;99.90;;;;;;5064726;28;20009;-94
2021/11/27 11:10:17;;;;;;;24.48;12.60;;;3.60;99.90;;;;;;5066429;28;20032;-90
2021/11/27 11:12:48;;;;;;;28.27;14.63;;;3.90;99.90;;;;;;5064751;28;20366;-91
2021/11/27 11:15:21;;;;;;;33.28;16.90;;;4.30;99.90;;;;;;5082301;28;20028;-92
2021/11/27 11:17:51;;;;;;;35.65;18.83;;;4.60;99.90;;;;;;5157468;23;20061;-91
2021/11/27 11:20:26;;;;;;;39.20;20.05;;;4.70;99.90;;;;;;5028584;28;20033;-91
2021/11/27 11:23:06;;;;;;;45.58;22.20;;;4.70;99.90;;;;;;5025328;28;20034;-91
2021/11/27 11:25:35;;;;;;;48.88;22.95;;;4.60;99.90;;;;;;5040053;28;20036;-90
2021/11/27 11:28:13;;;;;;;48.35;23.55;;;4.40;99.90;;;;;;5049275;28;20092;-91
2021/11/27 11:30:41;;;;;;;49.55;23.08;;;4.30;99.90;;;;;;5056191;28;20030;-92
2021/11/27 11:33:07;;;;;;;49.40;24.35;;;4.20;99.90;;;;;;5042227;28;20025;-93
2021/11/27 11:35:35;;;;;;;56.90;24.00;;;4.10;99.90;;;;;;5047911;28;20018;-90
2021/11/27 11:38:06;;;;;;;56.67;24.42;;;4.10;99.90;;;;;;5047161;28;20030;-93
2021/11/27 11:40:39;;;;;;;57.05;25.42;;;4.20;99.90;;;;;;5045843;28;20026;-91
2021/11/27 11:43:06;;;;;;;56.70;25.60;;;4.30;99.90;;;;;;5031707;28;20054;-90
2021/11/27 11:45:41;;;;;;;53.83;25.50;;;4.30;99.90;;;;;;5043319;28;20093;-91
2021/11/27 11:48:07;;;;;;;61.88;26.92;;;4.40;99.90;;;;;;5045744;22;20049;-89
2021/11/27 11:50:50;;;;;;;57.95;24.45;;;4.40;99.90;;;;;;5038709;28;20033;-90
2021/11/27 11:53:58;;;;;;;48.33;21.70;;;4.50;99.90;;;;;;5035157;28;20548;-90
2021/11/27 11:56:45;;;;;;;45.90;21.95;;;4.60;99.90;;;;;;5018050;28;20048;-91
2021/11/27 11:59:54;;;;;;;;;;;;;;;;;;;;;
2021/11/27 12:02:39;;;;;;;49.65;21.90;;;4.70;99.90;;;;;;4969707;28;20042;-88
2021/11/27 12:05:23;;;;;;;52.53;21.67;;;4.70;99.90;;;;;;5027096;28;20104;-91
2021/11/27 12:08:04;;;;;;;48.97;21.08;;;4.60;99.90;;;;;;5044410;28;20029;-91
2021/11/27 12:10:46;;;;;;;50.70;21.27;;;4.70;99.90;;;;;;5033486;28;20039;-92
2021/11/27 12:13:24;;;;;;;50.83;23.00;;;4.70;99.90;;;;;;5041179;28;20079;-91
2021/11/27 12:16:18;;;;;;;48.80;22.15;;;4.70;99.90;;;;;;5041219;28;20063;-91
2021/11/27 12:30:01;;;;;;;45.95;20.40;;;4.60;99.90;;;;;;4880177;29;20269;-91
2021/11/27 12:33:04;;;;;;;50.90;25.20;;;4.80;99.90;;;;;;4881134;29;20048;-92
2021/11/27 12:35:40;;;;;;;47.85;23.85;;;4.80;99.90;;;;;;4882060;29;20044;-92
2021/11/27 12:42:32;;;;;;;46.92;22.15;;;5.00;99.90;;;;;;4900005;29;20048;-92
2021/11/27 12:45:57;;;;;;;48.85;23.30;;;5.00;99.90;;;;;;4901323;29;20060;-92
2021/11/27 12:48:40;;;;;;;45.58;22.35;;;5.00;99.90;;;;;;4973808;28;20080;-93
2021/11/27 12:52:02;;;;;;;44.78;19.83;;;5.10;99.90;;;;;;4980169;28;20059;-91
2021/11/27 12:55:05;;;;;;;41.70;19.42;;;5.20;99.90;;;;;;4938984;29;20070;-92
2021/11/27 12:57:53;;;;;;;40.58;19.02;;;5.30;99.90;;;;;;4996589;28;20126;-91
2021/11/27 13:00:46;;;;;;;37.00;15.73;;;5.40;99.90;;;;;;5070011;28;20009;-91
2021/11/27 13:03:38;;;;;;;36.78;15.77;;;5.50;99.90;;;;;;5039953;28;20047;-92
2021/11/27 13:16:18;;;;;;;25.75;13.43;;;4.80;99.90;;;;;;5042963;28;20059;-92
2021/11/27 13:19:58;;;;;;;35.83;17.65;;;4.70;99.90;;;;;;5025226;28;20042;-91
2021/11/27 13:22:32;;;;;;;;;;;;;;;;;;;;;
2021/11/27 13:25:08;;;;;;;29.65;17.15;;;4.60;99.90;;;;;;5036746;28;20108;-92
2021/11/27 13:27:40;;;;;;;34.15;18.17;;;4.50;99.90;;;;;;5048191;28;20033;-93
2021/11/27 13:30:45;;;;;;;41.17;23.10;;;4.50;99.90;;;;;;5050010;28;20018;-93
2021/11/27 13:33:57;;;;;;;;;;;;;;;;;;;;;
2021/11/27 13:36:54;;;;;;;44.55;21.90;;;4.40;99.90;;;;;;5036138;28;20116;-90
2021/11/27 13:39:57;;;;;;;34.05;22.17;;;4.40;99.90;;;;;;5036685;28;20087;-91
2021/11/27 13:42:43;;;;;;;38.47;24.40;;;4.40;99.90;;;;;;5035902;28;20064;-90
2021/11/27 13:46:07;;;;;;;;;;;;;;;;;;;;;
2021/11/27 13:48:58;;;;;;;;;;;;;;;;;;;;;
2021/11/27 13:54:52;;;;;;;41.55;24.17;;;4.30;99.90;;;;;;5065102;28;20079;-91
2021/11/27 13:57:30;;;;;;;31.85;21.77;;;4.40;99.90;;;;;;5077685;28;20033;-92
2021/11/27 14:00:25;;;;;;;39.47;23.77;;;4.40;99.90;;;;;;5058326;28;20024;-92
2021/11/27 14:03:58;;;;;;;36.47;23.63;;;4.50;99.90;;;;;;5061596;28;20032;-92
2021/11/27 14:06:30;;;;;;;33.72;20.67;;;4.50;99.90;;;;;;5027245;28;20041;-92
2021/11/27 14:09:20;;;;;;;31.55;18.95;;;4.50;99.90;;;;;;5057877;28;20029;-92
2021/11/27 14:15:27;;;;;;;;;;;;;;;;;;;;;
2021/11/27 14:18:06;;;;;;;30.63;17.40;;;4.50;99.90;;;;;;5070870;28;20031;-94
2021/11/27 14:20:52;;;;;;;29.92;16.27;;;4.40;99.90;;;;;;5072566;28;20063;-94
2021/11/27 14:23:40;;;;;;;32.38;16.40;;;4.40;99.90;;;;;;5087237;28;20032;-94
2021/11/27 14:26:47;;;;;;;36.65;17.98;;;4.40;99.90;;;;;;5061586;28;20032;-94
2021/11/27 14:29:28;;;;;;;30.42;16.95;;;4.40;99.90;;;;;;5051171;28;20059;-94
2021/11/27 14:32:00;;;;;;;28.70;15.40;;;4.30;99.90;;;;;;5055755;28;20576;-92
2021/11/27 14:34:49;;;;;;;29.73;15.57;;;4.30;99.90;;;;;;5079206;28;20042;-93
2021/11/27 14:37:30;;;;;;;28.50;15.95;;;4.30;99.90;;;;;;5061603;28;20021;-92
2021/11/27 14:40:00;;;;;;;30.75;15.25;;;4.30;99.90;;;;;;5063110;28;20036;-92
2021/11/27 14:42:54;;;;;;;25.48;14.60;;;4.30;99.90;;;;;;5079702;28;20011;-96
2021/11/27 14:45:56;;;;;;;;;;;;;;;;;;;;;
2021/11/27 14:48:41;;;;;;;22.85;13.43;;;4.30;99.90;;;;;;4996647;28;20069;-92
2021/11/27 14:51:41;;;;;;;22.27;13.05;;;4.30;99.90;;;;;;5049863;28;20030;-92
2021/11/27 14:54:51;;;;;;;23.67;12.77;;;4.30;99.90;;;;;;5023789;28;20046;-93
2021/11/27 15:00:52;;;;;;;20.73;12.95;;;4.30;99.90;;;;;;5007988;28;20084;-92
2021/11/27 15:03:27;;;;;;;19.65;11.77;;;4.30;99.90;;;;;;5035018;28;20136;-92
2021/11/27 15:06:24;;;;;;;20.90;11.27;;;4.40;99.90;;;;;;5075930;28;20411;-91
2021/11/27 15:09:14;;;;;;;18.20;11.57;;;4.40;99.90;;;;;;5079682;28;20032;-93
2021/11/27 15:11:50;;;;;;;21.00;12.18;;;4.40;99.90;;;;;;5085374;28;20032;-92
2021/11/27 15:14:26;;;;;;;19.50;12.48;;;4.40;99.90;;;;;;5056845;28;20177;-94
2021/11/27 15:17:07;;;;;;;21.23;12.90;;;4.40;99.90;;;;;;5063719;28;20025;-93
2021/11/27 15:19:36;;;;;;;21.52;12.73;;;4.40;99.90;;;;;;5059970;28;20041;-96
2021/11/27 15:22:21;;;;;;;;;;;;;;;;;;;;;
2021/11/27 15:24:54;;;;;;;21.33;13.52;;;4.40;99.90;;;;;;5054256;28;20084;-91
2021/11/27 15:27:41;;;;;;;25.17;14.32;;;4.40;99.90;;;;;;5068004;28;20052;-92